DW4988 Weather Reports


time (UTC)temp
C
wind
direction
speed
KPH
gust
KPH
rain 1hr
cm
rain 24hr
cm
rain mn
cm
humidity
%
barometer
mb
20220629041534 25 121 16.1 20.9 0.00 0.15 0.15 34 1019.3
20220629040048 26 121 12.9 20.9 0.00 0.15 0.15 33 1018.6
20220629034535 25 128 12.9 27.4 0.00 0.15 0.15 38 1018.2
20220629033037 26 224 17.7 41.8 0.00 0.15 0.15 34 1019.8
20220629031546 26 341 0.0 6.4 0.00 0.15 0.15 31 1018.6
20220629030041 26 47 3.2 8.0 0.00 0.15 0.15 31 1018.3
20220629024537 26 0 0.0 8.0 0.00 0.15 0.15 32 1018.3
20220629023035 26 5 1.6 6.4 0.00 0.15 0.15 33 1018.1
20220629021536 26 0 0.0 4.8 0.00 0.15 0.15 33 1018.0
20220629020035 26 10 1.6 9.7 0.00 0.15 0.15 32 1018.1
20220629014542 27 285 3.2 8.0 0.00 0.15 0.15 31 1018.3
20220629013037 27 211 0.0 6.4 0.00 0.15 0.15 30 1018.3
20220629011538 28 141 1.6 9.7 0.00 0.15 0.15 28 1018.3
20220629010047 28 117 8.0 19.3 0.00 0.15 0.15 27 1018.3
20220629004545 28 94 17.7 32.2 0.00 0.15 0.15 26 1018.3
20220629003056 30 74 22.5 37.0 0.00 0.15 0.15 24 1018.5
20220629001547 31 95 17.7 30.6 0.00 0.15 0.15 22 1018.5
20220629000038 30 108 22.5 41.8 0.00 0.15 0.15 26 1019.4
20220628234543 30 217 3.2 19.3 0.00 0.15 0.15 24 1020.3
20220628233044 30 208 16.1 35.4 0.00 0.15 0.15 22 1020.2
20220628231543 31 296 0.0 4.8 0.00 0.15 0.15 22 1019.1
20220628230042 32 26 6.4 14.5 0.00 0.15 0.15 20 1018.6
20220628224546 32 35 9.7 22.5 0.00 0.15 0.15 19 1018.8
20220628223041 33 31 11.3 25.7 0.00 0.15 0.15 18 1019.0
20220628221537 33 24 12.9 22.5 0.00 0.15 0.15 21 1019.3
20220628220036 32 13 11.3 20.9 0.00 0.15 0.15 22 1019.6
20220628214536 32 34 6.4 17.7 0.15 0.15 0.15 27 1019.9
20220628213042 30 20 11.3 22.5 0.15 0.15 0.15 31 1020.3
20220628211538 27 267 19.3 40.2 0.15 0.15 0.15 33 1020.8
20220628210035 24 246 8.0 20.9 0.15 0.15 0.15 48 1021.1
20220628204541 32 67 20.9 45.1 0.00 0.00 0.00 24 1021.0
20220628203040 33 180 9.7 24.1 0.00 0.00 0.00 16 1020.2
20220628201535 37 161 11.3 29.0 0.00 0.00 0.00 13 1020.5
20220628200035 35 189 11.3 29.0 0.00 0.00 0.00 16 1020.7
20220628194539 36 141 20.9 35.4 0.00 0.00 0.00 15 1021.0
20220628193040 33 144 11.3 35.4 0.00 0.00 0.00 18 1021.4
20220628191542 35 188 14.5 33.8 0.00 0.00 0.00 17 1021.5
20220628190038 32 124 22.5 35.4 0.00 0.00 0.00 20 1021.8
20220628184534 31 176 17.7 29.0 0.00 0.00 0.00 21 1021.9
20220628183035 32 137 16.1 33.8 0.00 0.00 0.00 20 1022.0
20220628181538 34 143 17.7 37.0 0.00 0.00 0.00 18 1022.2
20220628180032 31 138 19.3 30.6 0.00 0.00 0.00 21 1022.3
20220628174543 32 110 16.1 25.7 0.00 0.00 0.00 20 1022.3
20220628173040 31 150 14.5 25.7 0.00 0.00 0.00 22 1022.5
20220628171544 29 141 8.0 19.3 0.00 0.00 0.00 23 1022.7
20220628170042 29 136 4.8 12.9 0.00 0.00 0.00 23 1022.8
20220628164538 30 234 3.2 16.1 0.00 0.00 0.00 21 1022.8
20220628163041 31 211 6.4 29.0 0.00 0.00 0.00 19 1022.6
20220628161545 30 155 6.4 16.1 0.00 0.00 0.00 21 1022.2
20220628160037 29 218 9.7 27.4 0.00 0.00 0.00 21 1022.3
20220628154538 28 146 6.4 25.7 0.00 0.00 0.00 24 1022.3
20220628153047 28 249 6.4 29.0 0.00 0.00 0.00 24 1022.6
20220628151604 28 162 4.8 20.9 0.00 0.00 0.00 23 1022.6
20220628150044 27 200 3.2 22.5 0.00 0.00 0.00 26 1022.6
20220628144547 27 126 14.5 22.5 0.00 0.00 0.00 27 1022.6
20220628143034 26 146 8.0 19.3 0.00 0.00 0.00 28 1022.6
20220628141551 25 124 11.3 17.7 0.00 0.00 0.00 30 1022.5
20220628140037 23 142 3.2 12.9 0.00 0.00 0.00 32 1022.6
20220628134547 22 128 4.8 16.1 0.00 0.00 0.00 33 1022.6
20220628133042 22 225 1.6 8.0 0.00 0.00 0.00 34 1022.5
20220628131538 22 183 1.6 6.4 0.00 0.00 0.00 35 1022.6
20220628130041 21 179 3.2 9.7 0.00 0.00 0.00 35 1022.5
20220628124538 21 207 1.6 17.7 0.00 0.00 0.00 35 1022.4
20220628123037 21 138 8.0 17.7 0.00 0.00 0.00 37 1022.4
20220628121538 19 194 3.2 9.7 0.00 0.00 0.00 41 1022.3
20220628120043 19 149 0.0 9.7 0.00 0.00 0.00 43 1022.2
20220628114537 20 168 3.2 12.9 0.00 0.00 0.00 41 1022.2
20220628113033 20 137 8.0 14.5 0.00 0.00 0.00 39 1022.1
20220628111531 20 138 12.9 20.9 0.00 0.00 0.00 38 1022.0
20220628110050 20 143 4.8 12.9 0.00 0.00 0.00 38 1022.0
20220628104535 18 134 4.8 12.9 0.00 0.00 0.00 39 1022.0
20220628103043 19 142 0.0 4.8 0.00 0.00 0.00 34 1022.0
20220628101535 20 207 1.6 4.8 0.00 0.00 0.00 32 1022.0
20220628100042 20 211 1.6 4.8 0.00 0.00 0.00 31 1022.1
20220628094535 20 188 0.0 4.8 0.00 0.00 0.00 30 1022.1
20220628093046 20 215 1.6 4.8 0.00 0.00 0.00 31 1022.2
20220628091550 20 215 1.6 9.7 0.00 0.00 0.00 30 1022.2
20220628090041 20 207 3.2 8.0 0.00 0.00 0.00 28 1022.3
20220628084542 20 218 3.2 6.4 0.00 0.00 0.00 29 1022.3
20220628083041 20 218 3.2 8.0 0.00 0.00 0.00 30 1022.4
20220628081535 20 214 3.2 8.0 0.00 0.00 0.00 31 1022.4
20220628080038 19 188 0.0 11.3 0.00 0.00 0.00 34 1022.3
20220628074538 20 217 1.6 4.8 0.00 0.00 0.00 32 1022.2
20220628073035 20 206 3.2 6.4 0.00 0.00 0.00 34 1022.3
20220628071536 19 215 1.6 4.8 0.00 0.00 0.00 39 1022.3
20220628070038 21 0 1.6 6.4 0.00 0.00 0.00 34 1022.4
20220628064535 21 30 1.6 4.8 0.00 0.00 0.00 32 1022.3
20220628063041 21 0 0.0 3.2 0.00 0.00 0.00 32 1022.5
20220628061546 22 184 1.6 3.2 0.00 0.00 0.00 31 1022.4
20220628060045 22 140 0.0 4.8 0.00 0.00 0.00 31 1022.4
20220628054544 22 0 0.0 4.8 0.00 0.00 0.00 32 1022.4
20220628053050 22 0 0.0 3.2 0.00 0.00 0.00 32 1022.4
20220628051531 22 0 0.0 0.0 0.00 0.00 0.00 32 1022.6
20220628050044 23 0 0.0 3.2 0.00 0.00 0.00 32 1022.4
20220628044559 23 0 0.0 0.0 0.00 0.00 0.00 31 1022.5
20220628043040 25 327 0.0 4.8 0.00 0.00 0.00 28 1022.6